sensor_id;sensor_type;location;lat;lon;timestamp;pressure;altitude;pressure_sealevel;temperature;humidity
35758;BME280;21879;50.110;18.900;2022-11-20T00:09:30;98383.60;;;-2.09;56.01
35758;BME280;21879;50.110;18.900;2022-11-20T00:19:58;98378.09;;;-2.30;55.96
35758;BME280;21879;50.110;18.900;2022-11-20T00:30:25;98364.89;;;-2.27;56.20
35758;BME280;21879;50.110;18.900;2022-11-20T00:40:57;98357.20;;;-2.38;55.87
35758;BME280;21879;50.110;18.900;2022-11-20T00:51:26;98357.95;;;-2.41;55.90
35758;BME280;21879;50.110;18.900;2022-11-20T01:01:54;98358.30;;;-2.54;56.00
35758;BME280;21879;50.110;18.900;2022-11-20T01:12:21;98355.47;;;-2.52;56.09
35758;BME280;21879;50.110;18.900;2022-11-20T01:22:48;98336.73;;;-2.53;56.14
35758;BME280;21879;50.110;18.900;2022-11-20T01:33:15;98330.48;;;-2.46;55.93
35758;BME280;21879;50.110;18.900;2022-11-20T01:43:43;98320.63;;;-2.65;56.02
35758;BME280;21879;50.110;18.900;2022-11-20T01:54:14;98307.39;;;-2.60;55.97
35758;BME280;21879;50.110;18.900;2022-11-20T02:04:44;98310.42;;;-2.75;55.60
35758;BME280;21879;50.110;18.900;2022-11-20T02:15:12;98322.71;;;-2.92;55.29
35758;BME280;21879;50.110;18.900;2022-11-20T02:25:40;98335.75;;;-3.20;55.10
35758;BME280;21879;50.110;18.900;2022-11-20T02:36:14;98345.60;;;-3.30;55.75
35758;BME280;21879;50.110;18.900;2022-11-20T02:46:42;98350.59;;;-3.19;55.96
35758;BME280;21879;50.110;18.900;2022-11-20T02:57:09;98350.67;;;-3.08;56.13
35758;BME280;21879;50.110;18.900;2022-11-20T03:07:37;98345.02;;;-2.82;56.51
35758;BME280;21879;50.110;18.900;2022-11-20T03:18:04;98338.29;;;-2.75;55.98
35758;BME280;21879;50.110;18.900;2022-11-20T03:28:31;98345.23;;;-2.81;55.94
35758;BME280;21879;50.110;18.900;2022-11-20T03:38:59;98339.39;;;-2.83;55.92
35758;BME280;21879;50.110;18.900;2022-11-20T03:49:26;98342.35;;;-2.67;55.71
35758;BME280;21879;50.110;18.900;2022-11-20T03:59:54;98346.23;;;-2.86;55.38
35758;BME280;21879;50.110;18.900;2022-11-20T04:10:21;98342.99;;;-3.00;55.48
35758;BME280;21879;50.110;18.900;2022-11-20T04:20:48;98334.05;;;-2.89;55.76
35758;BME280;21879;50.110;18.900;2022-11-20T04:31:17;98320.19;;;-2.96;55.47
35758;BME280;21879;50.110;18.900;2022-11-20T04:41:45;98309.70;;;-3.08;55.55
35758;BME280;21879;50.110;18.900;2022-11-20T04:52:13;98298.75;;;-3.27;55.65
35758;BME280;21879;50.110;18.900;2022-11-20T05:02:40;98296.54;;;-3.32;55.63
35758;BME280;21879;50.110;18.900;2022-11-20T05:13:07;98292.77;;;-3.42;55.45
35758;BME280;21879;50.110;18.900;2022-11-20T05:23:35;98282.16;;;-3.57;55.22
35758;BME280;21879;50.110;18.900;2022-11-20T05:34:02;98278.29;;;-3.56;55.27
35758;BME280;21879;50.110;18.900;2022-11-20T05:44:30;98271.66;;;-3.56;55.52
35758;BME280;21879;50.110;18.900;2022-11-20T05:54:58;98268.36;;;-3.79;54.87
35758;BME280;21879;50.110;18.900;2022-11-20T06:05:25;98267.77;;;-3.90;55.41
35758;BME280;21879;50.110;18.900;2022-11-20T06:15:53;98266.14;;;-3.84;55.77
35758;BME280;21879;50.110;18.900;2022-11-20T06:26:22;98273.41;;;-3.72;55.93
35758;BME280;21879;50.110;18.900;2022-11-20T06:36:50;98269.33;;;-3.59;56.42
35758;BME280;21879;50.110;18.900;2022-11-20T06:47:17;98260.75;;;-3.52;56.90
35758;BME280;21879;50.110;18.900;2022-11-20T06:57:45;98248.85;;;-3.48;57.56
35758;BME280;21879;50.110;18.900;2022-11-20T07:08:18;98243.02;;;-3.31;58.53
35758;BME280;21879;50.110;18.900;2022-11-20T07:18:46;98238.39;;;-3.18;58.97
35758;BME280;21879;50.110;18.900;2022-11-20T07:29:16;98237.23;;;-3.18;58.91
35758;BME280;21879;50.110;18.900;2022-11-20T07:39:45;98250.55;;;-3.56;59.02
35758;BME280;21879;50.110;18.900;2022-11-20T07:50:14;98252.11;;;-3.90;59.87
35758;BME280;21879;50.110;18.900;2022-11-20T08:00:42;98251.52;;;-4.09;60.48
35758;BME280;21879;50.110;18.900;2022-11-20T08:11:10;98264.30;;;-4.16;61.39
35758;BME280;21879;50.110;18.900;2022-11-20T08:21:56;98264.77;;;-3.96;62.48
35758;BME280;21879;50.110;18.900;2022-11-20T08:32:24;98268.70;;;-3.57;63.61
35758;BME280;21879;50.110;18.900;2022-11-20T08:42:52;98272.36;;;-3.19;64.21
35758;BME280;21879;50.110;18.900;2022-11-20T08:53:20;98273.89;;;-2.73;64.85
35758;BME280;21879;50.110;18.900;2022-11-20T09:03:48;98262.92;;;-2.11;65.05
35758;BME280;21879;50.110;18.900;2022-11-20T09:14:16;98256.30;;;-2.00;64.86
35758;BME280;21879;50.110;18.900;2022-11-20T09:24:44;98251.82;;;-1.80;65.44
35758;BME280;21879;50.110;18.900;2022-11-20T09:35:12;98247.31;;;-1.33;65.89
35758;BME280;21879;50.110;18.900;2022-11-20T09:45:50;98242.52;;;-0.99;65.52
35758;BME280;21879;50.110;18.900;2022-11-20T09:56:21;98227.67;;;-1.04;65.09
35758;BME280;21879;50.110;18.900;2022-11-20T10:06:55;98225.07;;;-0.76;65.66
35758;BME280;21879;50.110;18.900;2022-11-20T10:18:14;98212.65;;;-0.35;65.90
35758;BME280;21879;50.110;18.900;2022-11-20T10:28:53;98201.14;;;-0.03;65.62
35758;BME280;21879;50.110;18.900;2022-11-20T10:39:35;98188.92;;;0.22;65.58
35758;BME280;21879;50.110;18.900;2022-11-20T10:50:11;98177.54;;;0.33;65.53
35758;BME280;21879;50.110;18.900;2022-11-20T11:00:47;98171.16;;;0.30;65.49
35758;BME280;21879;50.110;18.900;2022-11-20T11:11:21;98161.27;;;0.32;65.98
35758;BME280;21879;50.110;18.900;2022-11-20T11:21:52;98163.66;;;0.31;66.27
35758;BME280;21879;50.110;18.900;2022-11-20T11:32:21;98161.01;;;0.28;66.46
35758;BME280;21879;50.110;18.900;2022-11-20T11:42:56;98157.64;;;0.22;66.93
35758;BME280;21879;50.110;18.900;2022-11-20T11:53:25;98144.30;;;0.37;67.35
35758;BME280;21879;50.110;18.900;2022-11-20T12:04:02;98131.60;;;0.43;67.12
35758;BME280;21879;50.110;18.900;2022-11-20T12:14:34;98124.96;;;0.45;67.47
35758;BME280;21879;50.110;18.900;2022-11-20T12:25:07;98114.89;;;0.71;67.56
35758;BME280;21879;50.110;18.900;2022-11-20T12:36:00;98090.10;;;0.90;67.30
35758;BME280;21879;50.110;18.900;2022-11-20T12:46:34;98077.40;;;0.88;67.06
35758;BME280;21879;50.110;18.900;2022-11-20T12:57:12;98068.95;;;0.85;66.98
35758;BME280;21879;50.110;18.900;2022-11-20T13:07:44;98059.37;;;0.85;66.90
35758;BME280;21879;50.110;18.900;2022-11-20T13:18:12;98052.41;;;0.78;67.10
35758;BME280;21879;50.110;18.900;2022-11-20T13:28:40;98026.41;;;0.80;67.57
35758;BME280;21879;50.110;18.900;2022-11-20T13:39:10;98029.55;;;0.91;67.61
35758;BME280;21879;50.110;18.900;2022-11-20T13:49:39;98021.35;;;1.34;67.60
35758;BME280;21879;50.110;18.900;2022-11-20T14:00:14;98003.89;;;1.81;67.27
35758;BME280;21879;50.110;18.900;2022-11-20T14:10:42;97997.37;;;1.93;66.46
35758;BME280;21879;50.110;18.900;2022-11-20T14:21:11;97998.51;;;2.14;66.62
35758;BME280;21879;50.110;18.900;2022-11-20T14:31:36;97999.31;;;2.10;65.76
35758;BME280;21879;50.110;18.900;2022-11-20T14:42:10;97995.17;;;2.09;66.07
35758;BME280;21879;50.110;18.900;2022-11-20T14:52:51;97987.71;;;2.29;65.99
35758;BME280;21879;50.110;18.900;2022-11-20T15:03:18;97981.67;;;2.26;65.37
35758;BME280;21879;50.110;18.900;2022-11-20T15:13:46;97975.04;;;1.64;65.52
35758;BME280;21879;50.110;18.900;2022-11-20T15:24:14;97974.61;;;1.24;66.38
35758;BME280;21879;50.110;18.900;2022-11-20T15:34:42;97975.69;;;1.06;67.11
35758;BME280;21879;50.110;18.900;2022-11-20T15:45:11;97977.04;;;1.04;67.85
35758;BME280;21879;50.110;18.900;2022-11-20T15:55:39;97970.15;;;1.35;68.38
35758;BME280;21879;50.110;18.900;2022-11-20T16:06:07;97974.35;;;1.77;68.21
35758;BME280;21879;50.110;18.900;2022-11-20T16:16:36;97961.57;;;1.95;67.87
35758;BME280;21879;50.110;18.900;2022-11-20T16:27:06;97969.40;;;1.78;67.60
35758;BME280;21879;50.110;18.900;2022-11-20T16:37:33;97970.13;;;1.33;67.98
35758;BME280;21879;50.110;18.900;2022-11-20T16:48:01;97958.52;;;1.14;68.10
35758;BME280;21879;50.110;18.900;2022-11-20T16:58:28;97966.31;;;1.08;68.65
35758;BME280;21879;50.110;18.900;2022-11-20T17:08:56;97970.75;;;1.07;68.86
35758;BME280;21879;50.110;18.900;2022-11-20T17:19:23;97986.11;;;1.37;69.41
35758;BME280;21879;50.110;18.900;2022-11-20T17:29:51;97963.17;;;1.73;68.95
35758;BME280;21879;50.110;18.900;2022-11-20T17:40:19;97957.17;;;1.38;68.63
35758;BME280;21879;50.110;18.900;2022-11-20T17:50:52;97945.50;;;1.13;69.09
35758;BME280;21879;50.110;18.900;2022-11-20T18:01:25;97931.63;;;1.13;69.51
35758;BME280;21879;50.110;18.900;2022-11-20T18:11:53;97927.44;;;1.41;69.60
35758;BME280;21879;50.110;18.900;2022-11-20T18:22:20;97930.20;;;1.82;69.31
35758;BME280;21879;50.110;18.900;2022-11-20T18:32:48;97931.32;;;2.19;68.62
35758;BME280;21879;50.110;18.900;2022-11-20T18:43:16;97932.98;;;2.28;68.33
35758;BME280;21879;50.110;18.900;2022-11-20T18:54:00;97927.04;;;2.34;68.11
35758;BME280;21879;50.110;18.900;2022-11-20T19:04:28;97920.23;;;2.39;68.13
35758;BME280;21879;50.110;18.900;2022-11-20T19:14:57;97923.38;;;2.14;68.07
35758;BME280;21879;50.110;18.900;2022-11-20T19:25:25;97919.30;;;2.18;68.47
35758;BME280;21879;50.110;18.900;2022-11-20T19:35:54;97921.37;;;2.03;68.21
35758;BME280;21879;50.110;18.900;2022-11-20T19:46:21;97924.74;;;1.71;68.97
35758;BME280;21879;50.110;18.900;2022-11-20T19:56:49;97911.98;;;1.91;69.03
35758;BME280;21879;50.110;18.900;2022-11-20T20:07:17;97896.36;;;1.90;69.28
35758;BME280;21879;50.110;18.900;2022-11-20T20:17:45;97900.64;;;2.19;69.31
35758;BME280;21879;50.110;18.900;2022-11-20T20:28:13;97895.38;;;2.42;69.25
35758;BME280;21879;50.110;18.900;2022-11-20T20:38:40;97891.60;;;2.60;68.97
35758;BME280;21879;50.110;18.900;2022-11-20T20:49:09;97890.80;;;2.67;68.72
35758;BME280;21879;50.110;18.900;2022-11-20T20:59:37;97891.14;;;2.47;68.70
35758;BME280;21879;50.110;18.900;2022-11-20T21:10:06;97895.63;;;2.00;68.74
35758;BME280;21879;50.110;18.900;2022-11-20T21:20:33;97909.02;;;2.02;69.37
35758;BME280;21879;50.110;18.900;2022-11-20T21:31:20;97902.27;;;2.28;69.46
35758;BME280;21879;50.110;18.900;2022-11-20T21:41:48;97897.70;;;2.35;69.47
35758;BME280;21879;50.110;18.900;2022-11-20T21:52:16;97907.38;;;2.42;69.23
35758;BME280;21879;50.110;18.900;2022-11-20T22:02:43;97906.58;;;2.48;69.45
35758;BME280;21879;50.110;18.900;2022-11-20T22:13:11;97905.52;;;2.44;69.32
35758;BME280;21879;50.110;18.900;2022-11-20T22:23:57;97914.50;;;2.34;69.67
35758;BME280;21879;50.110;18.900;2022-11-20T22:34:25;97922.10;;;2.22;70.03
35758;BME280;21879;50.110;18.900;2022-11-20T22:44:53;97928.73;;;2.16;69.94
35758;BME280;21879;50.110;18.900;2022-11-20T22:55:21;97946.62;;;1.79;70.07
35758;BME280;21879;50.110;18.900;2022-11-20T23:05:49;97947.41;;;1.61;70.55
35758;BME280;21879;50.110;18.900;2022-11-20T23:16:18;97943.35;;;1.53;70.99
35758;BME280;21879;50.110;18.900;2022-11-20T23:26:44;97942.40;;;1.46;71.04
35758;BME280;21879;50.110;18.900;2022-11-20T23:37:12;97944.45;;;1.58;71.22
35758;BME280;21879;50.110;18.900;2022-11-20T23:47:40;97926.06;;;2.09;71.07
35758;BME280;21879;50.110;18.900;2022-11-20T23:58:07;97917.35;;;2.27;70.12
